createdAt,value
2022-12-31T00:01:56.186Z,12.12
2022-12-31T00:04:27.118Z,12.20
2022-12-31T00:06:56.620Z,12.23
2022-12-31T00:09:26.088Z,12.27
2022-12-31T00:11:55.617Z,12.16
2022-12-31T00:14:25.025Z,12.11
2022-12-31T00:16:54.541Z,12.15
2022-12-31T00:19:24.277Z,12.26
2022-12-31T00:21:55.179Z,12.20
2022-12-31T00:24:24.644Z,12.10
2022-12-31T00:26:54.079Z,12.14
2022-12-31T00:29:23.730Z,12.31
2022-12-31T00:31:53.103Z,12.47
2022-12-31T00:34:22.692Z,12.44
2022-12-31T00:36:52.240Z,12.49
2022-12-31T00:39:24.059Z,12.44
2022-12-31T00:41:53.433Z,12.52
2022-12-31T00:44:22.958Z,12.70
2022-12-31T00:46:52.446Z,12.77
2022-12-31T00:49:21.958Z,12.76
2022-12-31T00:51:51.478Z,12.77
2022-12-31T00:54:20.962Z,12.66
2022-12-31T00:56:52.009Z,12.73
2022-12-31T00:59:21.726Z,12.94
2022-12-31T01:01:51.328Z,12.96
2022-12-31T01:04:22.598Z,12.94
2022-12-31T01:06:52.243Z,12.94
2022-12-31T01:09:22.152Z,12.95
2022-12-31T01:11:53.214Z,13.01
2022-12-31T01:14:22.638Z,13.00
2022-12-31T01:16:54.861Z,13.03
2022-12-31T01:19:27.757Z,12.91
2022-12-31T01:21:58.038Z,12.87
2022-12-31T01:24:27.420Z,12.96
2022-12-31T01:26:58.429Z,12.92
2022-12-31T01:29:29.560Z,12.90
2022-12-31T01:31:59.041Z,12.86
2022-12-31T01:34:28.740Z,12.79
2022-12-31T01:36:58.110Z,12.79
2022-12-31T01:39:27.818Z,12.76
2022-12-31T01:41:59.541Z,12.74
2022-12-31T01:44:54.558Z,12.80
2022-12-31T01:47:36.719Z,12.87
2022-12-31T01:50:14.845Z,12.85
2022-12-31T01:52:51.005Z,12.81
2022-12-31T01:55:27.576Z,12.79
2022-12-31T01:58:07.258Z,12.74
2022-12-31T02:00:37.247Z,12.74
2022-12-31T02:03:09.021Z,12.70
2022-12-31T02:05:46.801Z,12.69
2022-12-31T02:08:17.240Z,12.65
2022-12-31T02:10:46.936Z,12.72
2022-12-31T02:13:17.827Z,12.70
2022-12-31T02:15:58.486Z,12.69
2022-12-31T02:18:37.239Z,12.76
2022-12-31T02:21:45.761Z,12.64
2022-12-31T02:25:10.423Z,12.50
2022-12-31T02:28:00.315Z,12.60
2022-12-31T02:30:33.867Z,12.65
2022-12-31T02:33:19.081Z,12.60
2022-12-31T02:35:55.098Z,12.67
2022-12-31T02:38:31.387Z,12.68
2022-12-31T02:41:01.722Z,12.74
2022-12-31T02:43:31.174Z,12.72
2022-12-31T02:46:13.127Z,12.70
2022-12-31T02:48:56.715Z,12.73
2022-12-31T02:51:42.715Z,12.68
2022-12-31T02:54:30.014Z,12.80
2022-12-31T02:57:11.718Z,12.75
2022-12-31T03:00:10.166Z,12.77
2022-12-31T03:02:46.374Z,12.83
2022-12-31T03:05:18.774Z,12.80
2022-12-31T03:07:48.254Z,12.83
2022-12-31T03:10:18.059Z,12.92
2022-12-31T03:12:47.361Z,12.89
2022-12-31T03:15:22.691Z,12.88
2022-12-31T03:17:59.594Z,12.91
2022-12-31T03:20:51.838Z,12.91
2022-12-31T03:23:29.236Z,12.94
2022-12-31T03:25:59.857Z,12.91
2022-12-31T03:28:31.928Z,12.94
2022-12-31T03:31:03.815Z,12.98
2022-12-31T03:33:39.620Z,12.99
2022-12-31T03:36:14.808Z,13.08
2022-12-31T03:38:48.431Z,13.11
2022-12-31T03:41:20.590Z,13.15
2022-12-31T03:43:50.004Z,13.21
2022-12-31T03:46:19.575Z,13.30
2022-12-31T03:48:50.417Z,13.38
2022-12-31T03:51:19.819Z,13.39
2022-12-31T03:53:49.248Z,13.47
2022-12-31T03:56:18.718Z,13.62
2022-12-31T03:58:48.138Z,13.64
2022-12-31T04:01:17.662Z,13.60
2022-12-31T04:03:47.314Z,13.59
2022-12-31T04:06:18.112Z,13.61
2022-12-31T04:08:47.555Z,13.55
2022-12-31T04:11:20.850Z,13.64
2022-12-31T04:13:50.644Z,13.61
2022-12-31T04:16:20.181Z,13.71
2022-12-31T04:18:49.598Z,13.79
2022-12-31T04:21:20.671Z,13.85
2022-12-31T04:23:50.295Z,13.83
2022-12-31T04:26:20.198Z,13.83
2022-12-31T04:28:49.656Z,13.88
2022-12-31T04:31:19.116Z,13.92
2022-12-31T04:33:48.583Z,13.85
2022-12-31T04:36:19.379Z,13.79
2022-12-31T04:38:48.870Z,13.83
2022-12-31T04:41:18.457Z,13.92
2022-12-31T04:43:51.010Z,13.96
2022-12-31T04:46:23.830Z,13.96
2022-12-31T04:48:53.601Z,14.00
2022-12-31T04:51:26.677Z,14.10
2022-12-31T04:53:56.502Z,13.93
2022-12-31T04:56:26.779Z,13.90
2022-12-31T04:58:56.962Z,13.91
2022-12-31T05:01:27.422Z,14.02
2022-12-31T05:03:57.209Z,14.02
2022-12-31T05:06:28.090Z,14.03
2022-12-31T05:08:57.563Z,14.05
2022-12-31T05:11:27.109Z,14.08
2022-12-31T05:13:56.617Z,14.13
2022-12-31T05:16:26.604Z,14.10
2022-12-31T05:18:57.601Z,14.15
2022-12-31T05:21:28.804Z,14.19
2022-12-31T05:23:58.241Z,14.19
2022-12-31T05:26:27.743Z,14.29
2022-12-31T05:29:00.266Z,14.23
2022-12-31T05:31:29.716Z,14.21
2022-12-31T05:34:02.208Z,14.18
2022-12-31T05:36:33.345Z,14.18
2022-12-31T05:39:02.744Z,14.11
2022-12-31T05:41:32.173Z,14.13
2022-12-31T05:44:01.776Z,14.03
2022-12-31T05:46:31.277Z,14.04
2022-12-31T05:49:00.727Z,14.08
2022-12-31T05:51:30.180Z,14.00
2022-12-31T05:54:01.005Z,13.94
2022-12-31T05:56:30.673Z,13.91
2022-12-31T05:59:00.128Z,13.86
2022-12-31T06:01:29.632Z,13.88
2022-12-31T06:03:59.198Z,13.72
2022-12-31T06:06:28.826Z,13.68
2022-12-31T06:08:58.239Z,13.68
2022-12-31T06:11:29.140Z,13.62
2022-12-31T06:13:59.276Z,13.65
2022-12-31T06:16:28.799Z,13.54
2022-12-31T06:18:58.332Z,13.39
2022-12-31T06:21:27.713Z,13.41
2022-12-31T06:23:58.807Z,13.33
2022-12-31T06:26:29.656Z,13.31
2022-12-31T06:28:59.107Z,13.30
2022-12-31T06:31:28.654Z,13.26
2022-12-31T06:33:58.128Z,13.20
2022-12-31T06:36:28.012Z,13.11
2022-12-31T06:38:57.357Z,13.05
2022-12-31T06:41:26.793Z,13.03
2022-12-31T06:43:57.747Z,12.93
2022-12-31T06:46:28.769Z,12.90
2022-12-31T06:48:58.254Z,12.93
2022-12-31T06:51:27.695Z,12.90
2022-12-31T06:53:57.075Z,12.93
2022-12-31T06:56:34.386Z,12.94
2022-12-31T06:59:06.911Z,12.96
2022-12-31T12:28:20.019Z,16.79
2022-12-31T12:31:56.975Z,16.92
2022-12-31T12:35:02.537Z,16.91
2022-12-31T12:38:38.004Z,16.98
2022-12-31T12:49:27.961Z,16.99
2022-12-31T12:53:10.448Z,17.10
